Time;durP1;ratioP1;P1;durP2;ratioP2;P2;SDS_P1;SDS_P2;PMS_P1;PMS_P2;Temp;Humidity;BMP_temperature;BMP_pressure;BME280_temperature;BME280_humidity;BME280_pressure;Samples;Min_cycle;Max_cycle;Signal;HPM_P1;HPM_P2
2021/12/07 00:01:25;;;;;;;23.67;13.23;;;3.40;99.90;;;;;;5031011;28;20041;-61
2021/12/07 00:03:51;;;;;;;24.27;14.00;;;3.40;99.90;;;;;;5030865;28;20045;-61
2021/12/07 00:06:17;;;;;;;25.55;14.77;;;3.40;99.90;;;;;;5030965;28;20041;-61
2021/12/07 00:08:43;;;;;;;24.52;13.95;;;3.40;99.90;;;;;;5013059;28;20094;-61
2021/12/07 00:11:10;;;;;;;28.17;14.15;;;3.30;99.90;;;;;;5030778;28;20644;-62
2021/12/07 00:13:39;;;;;;;23.55;13.45;;;3.30;99.90;;;;;;5013055;28;20164;-61
2021/12/07 00:16:07;;;;;;;24.17;14.27;;;3.20;99.90;;;;;;5013448;28;20099;-61
2021/12/07 00:18:32;;;;;;;24.48;14.10;;;3.20;99.90;;;;;;5030532;28;20427;-61
2021/12/07 00:20:58;;;;;;;22.98;13.35;;;3.10;99.90;;;;;;5030407;28;20041;-61
2021/12/07 00:23:24;;;;;;;23.48;13.43;;;3.00;99.90;;;;;;5030398;28;20087;-60
2021/12/07 00:25:50;;;;;;;23.17;13.57;;;3.00;99.90;;;;;;5030585;28;20045;-61
2021/12/07 00:28:18;;;;;;;25.85;14.40;;;2.90;99.90;;;;;;5030481;28;20033;-60
2021/12/07 00:30:44;;;;;;;23.75;13.90;;;2.90;99.90;;;;;;5013032;28;20053;-61
2021/12/07 00:35:50;;;;;;;23.48;13.48;;;2.80;99.90;;;;;;5030625;28;20041;-61
2021/12/07 00:38:23;;;;;;;24.30;14.02;;;2.80;99.90;;;;;;5030382;28;20103;-61
2021/12/07 00:40:51;;;;;;;24.95;13.88;;;2.80;99.90;;;;;;5012437;28;20033;-61
2021/12/07 00:43:17;;;;;;;24.23;14.23;;;2.70;99.90;;;;;;5030115;28;20103;-61
2021/12/07 00:45:45;;;;;;;25.30;14.43;;;2.60;99.90;;;;;;5030272;28;20495;-61
2021/12/07 00:48:13;;;;;;;23.60;13.52;;;2.60;99.90;;;;;;5029971;28;20037;-60
2021/12/07 00:50:42;;;;;;;23.38;12.88;;;2.60;99.90;;;;;;5030342;28;20091;-61
2021/12/07 00:53:09;;;;;;;22.77;13.02;;;2.50;99.90;;;;;;5029990;28;20048;-61
2021/12/07 00:55:41;;;;;;;23.85;13.30;;;2.50;99.90;;;;;;5030160;28;20094;-61
2021/12/07 00:58:16;;;;;;;24.95;13.90;;;2.50;99.90;;;;;;5030104;28;20044;-61
2021/12/07 01:00:43;;;;;;;25.67;13.82;;;2.40;99.90;;;;;;5029914;28;20051;-61
2021/12/07 01:03:09;;;;;;;27.30;14.50;;;2.40;99.90;;;;;;5029661;28;20042;-61
2021/12/07 01:05:36;;;;;;;25.02;13.63;;;2.40;99.90;;;;;;5030054;28;20040;-60
2021/12/07 01:26:56;;;;;;;24.33;14.38;;;2.20;99.90;;;;;;5030023;28;20049;-60
2021/12/07 01:29:25;;;;;;;23.17;13.95;;;2.30;99.90;;;;;;5029569;28;20361;-62
2021/12/07 01:34:50;;;;;;;27.25;15.02;;;2.30;99.90;;;;;;5029803;28;20038;-61
2021/12/07 01:37:29;;;;;;;24.92;14.30;;;2.30;99.90;;;;;;5029568;28;20044;-61
2021/12/07 01:40:21;;;;;;;23.60;13.30;;;2.20;99.90;;;;;;5012222;28;20053;-62
2021/12/07 01:43:15;;;;;;;24.42;13.95;;;2.20;99.90;;;;;;5029201;28;20139;-61
2021/12/07 01:49:41;;;;;;;23.42;12.70;;;2.20;99.90;;;;;;5029691;28;20049;-61
2021/12/07 01:51:25;;;;;;;22.63;12.70;;;2.20;99.90;;;;;;5029330;28;20592;-61
2021/12/07 01:59:33;;;;;;;23.70;13.18;;;2.10;99.90;;;;;;5031574;28;20416;-61
2021/12/07 02:01:59;;;;;;;23.95;13.95;;;2.00;99.90;;;;;;5033205;28;20041;-61
2021/12/07 02:04:25;;;;;;;23.70;13.77;;;2.10;99.90;;;;;;5033264;28;20052;-61
2021/12/07 02:06:51;;;;;;;22.17;13.27;;;2.00;99.90;;;;;;5033106;28;20041;-61
2021/12/07 02:09:17;;;;;;;23.70;12.70;;;2.00;99.90;;;;;;5032959;28;20080;-60
2021/12/07 02:11:49;;;;;;;25.33;12.85;;;1.90;99.90;;;;;;5033257;28;20061;-61
2021/12/07 02:14:17;;;;;;;22.65;12.98;;;1.90;99.90;;;;;;5033048;28;20125;-61
2021/12/07 02:16:48;;;;;;;25.20;13.93;;;1.90;99.90;;;;;;5033156;28;20030;-61
2021/12/07 02:19:15;;;;;;;22.02;13.02;;;1.90;99.90;;;;;;5033164;28;20046;-61
2021/12/07 02:21:41;;;;;;;26.75;13.98;;;1.80;99.90;;;;;;5032713;28;20041;-61
2021/12/07 02:24:07;;;;;;;24.05;13.23;;;1.80;99.90;;;;;;5015160;28;20048;-61
2021/12/07 02:26:32;;;;;;;28.58;15.40;;;1.80;99.90;;;;;;5032950;28;20034;-60
2021/12/07 02:28:59;;;;;;;27.05;13.88;;;1.90;99.90;;;;;;5014945;28;20033;-61
2021/12/07 02:31:25;;;;;;;25.17;12.98;;;1.80;99.90;;;;;;5032884;28;20037;-61
2021/12/07 02:33:51;;;;;;;27.80;14.90;;;1.80;99.90;;;;;;5032328;28;20467;-61
2021/12/07 02:36:17;;;;;;;27.05;14.30;;;1.80;99.90;;;;;;5032511;28;20036;-61
2021/12/07 02:38:42;;;;;;;28.77;15.20;;;1.80;99.90;;;;;;5032751;28;20037;-62
2021/12/07 02:41:08;;;;;;;31.08;16.10;;;1.80;99.90;;;;;;5032885;28;20049;-60
2021/12/07 02:43:34;;;;;;;26.83;13.50;;;1.80;99.90;;;;;;5032371;28;20038;-60
2021/12/07 02:46:00;;;;;;;26.23;13.65;;;1.70;99.90;;;;;;5032583;28;20069;-60
2021/12/07 02:48:26;;;;;;;29.08;14.35;;;1.70;99.90;;;;;;5032201;28;20041;-60
2021/12/07 02:50:52;;;;;;;27.70;14.20;;;1.80;99.90;;;;;;5032451;28;20114;-61
2021/12/07 02:53:25;;;;;;;25.50;13.25;;;1.80;99.90;;;;;;5031985;28;20041;-60
2021/12/07 02:55:52;;;;;;;28.52;15.32;;;1.80;99.90;;;;;;5032228;28;20048;-61
2021/12/07 02:58:18;;;;;;;30.25;16.27;;;1.80;99.90;;;;;;5032345;28;20041;-61
2021/12/07 03:00:53;;;;;;;31.05;15.68;;;1.80;99.90;;;;;;5032257;28;20120;-60
2021/12/07 03:03:18;;;;;;;31.85;15.73;;;1.80;99.90;;;;;;5031699;28;20066;-60
2021/12/07 03:06:01;;;;;;;33.50;16.52;;;1.80;99.90;;;;;;5014216;28;20037;-61
2021/12/07 03:27:52;;;;;;;31.50;16.10;;;1.80;99.90;;;;;;5031771;28;20041;-60
2021/12/07 03:30:18;;;;;;;28.95;14.82;;;1.80;99.90;;;;;;5031529;28;20496;-61
2021/12/07 03:32:44;;;;;;;30.70;14.95;;;1.90;99.90;;;;;;5030927;28;20499;-61
2021/12/07 03:35:09;;;;;;;34.13;16.55;;;1.90;99.90;;;;;;5031819;28;20120;-61
2021/12/07 03:37:35;;;;;;;33.75;16.25;;;1.90;99.90;;;;;;5031624;28;20049;-61
2021/12/07 03:40:01;;;;;;;30.27;15.50;;;1.90;99.90;;;;;;5031376;28;20041;-60
2021/12/07 03:42:26;;;;;;;29.58;15.32;;;1.90;99.90;;;;;;5030839;28;20065;-61
2021/12/07 03:44:52;;;;;;;29.63;14.73;;;1.90;99.90;;;;;;5031383;28;20498;-61
2021/12/07 03:47:18;;;;;;;30.48;14.98;;;1.80;99.90;;;;;;5031306;28;20076;-61
2021/12/07 03:49:43;;;;;;;29.88;15.35;;;1.80;99.90;;;;;;5031359;28;20029;-60
2021/12/07 03:52:09;;;;;;;32.38;15.68;;;1.80;99.90;;;;;;5013152;28;20695;-62
2021/12/07 03:54:34;;;;;;;29.98;15.10;;;1.80;99.90;;;;;;5031109;28;20049;-61
2021/12/07 03:57:00;;;;;;;30.83;15.00;;;1.70;99.90;;;;;;5031334;28;20536;-60
2021/12/07 03:59:26;;;;;;;30.05;15.02;;;1.70;99.90;;;;;;5030727;28;20038;-60
2021/12/07 04:01:52;;;;;;;32.60;16.50;;;1.70;99.90;;;;;;5030727;28;20353;-60
2021/12/07 04:04:19;;;;;;;34.63;15.63;;;1.70;99.90;;;;;;5030960;28;20041;-61
2021/12/07 04:06:45;;;;;;;35.60;16.20;;;1.70;99.90;;;;;;5030979;28;20099;-61
2021/12/07 04:09:10;;;;;;;33.30;15.18;;;1.70;99.90;;;;;;5030878;28;20033;-60
2021/12/07 04:11:36;;;;;;;34.15;15.98;;;1.70;99.90;;;;;;5031051;28;20034;-61
2021/12/07 04:14:01;;;;;;;34.17;15.20;;;1.70;99.90;;;;;;5029977;28;20072;-61
2021/12/07 04:16:27;;;;;;;34.97;14.95;;;1.70;99.90;;;;;;5030323;28;20492;-61
2021/12/07 04:18:53;;;;;;;34.85;16.00;;;1.70;99.90;;;;;;5030633;28;20053;-61
2021/12/07 04:21:19;;;;;;;28.45;13.70;;;1.70;99.90;;;;;;5030536;28;20058;-61
2021/12/07 04:23:45;;;;;;;33.38;15.20;;;1.70;99.90;;;;;;5030667;28;20480;-61
2021/12/07 04:26:12;;;;;;;34.72;15.40;;;1.70;99.90;;;;;;5030707;28;20077;-61
2021/12/07 04:28:38;;;;;;;32.05;15.52;;;1.70;99.90;;;;;;5030347;28;20044;-62
2021/12/07 04:31:05;;;;;;;30.55;14.32;;;1.70;99.90;;;;;;5030180;28;20167;-62
2021/12/07 04:33:31;;;;;;;30.73;13.80;;;1.70;99.90;;;;;;5030504;28;20061;-62
2021/12/07 04:35:58;;;;;;;28.48;14.23;;;1.70;99.90;;;;;;5030459;28;20044;-62
2021/12/07 04:38:24;;;;;;;31.65;14.25;;;1.70;99.90;;;;;;5030372;28;20048;-62
2021/12/07 04:40:50;;;;;;;32.92;14.30;;;1.70;99.90;;;;;;5030354;28;20049;-62
2021/12/07 04:43:16;;;;;;;29.85;14.32;;;1.70;99.90;;;;;;5029989;28;20122;-61
2021/12/07 04:59:00;;;;;;;35.17;15.50;;;1.70;99.90;;;;;;5029908;28;20411;-61
2021/12/07 05:01:26;;;;;;;33.88;15.25;;;1.70;99.90;;;;;;5030110;28;20491;-60
2021/12/07 05:03:56;;;;;;;34.42;15.27;;;1.70;99.90;;;;;;5029651;28;20045;-60
2021/12/07 05:06:26;;;;;;;32.60;14.65;;;1.70;99.90;;;;;;5012076;28;20068;-61
2021/12/07 05:08:58;;;;;;;33.47;14.75;;;1.70;99.90;;;;;;5012108;28;20046;-61
2021/12/07 05:11:33;;;;;;;35.58;14.80;;;1.70;99.90;;;;;;5012157;28;20076;-60
2021/12/07 05:16:40;;;;;;;35.47;14.85;;;1.70;99.90;;;;;;5030046;28;20569;-61
2021/12/07 05:24:49;;;;;;;29.45;12.80;;;1.70;99.90;;;;;;5029775;28;20053;-60
2021/12/07 05:37:58;;;;;;;34.92;12.88;;;1.60;99.90;;;;;;5033879;28;20037;-61
2021/12/07 05:40:35;;;;;;;34.88;15.68;;;1.70;99.90;;;;;;5015865;28;20051;-61
2021/12/07 05:43:02;;;;;;;31.67;14.05;;;1.70;99.90;;;;;;5033009;28;20458;-60
2021/12/07 05:45:32;;;;;;;31.35;13.32;;;1.70;99.90;;;;;;5033237;28;20400;-61
2021/12/07 05:47:59;;;;;;;25.27;11.85;;;1.70;99.90;;;;;;5033337;28;20056;-61
2021/12/07 05:50:28;;;;;;;28.95;12.50;;;1.70;99.90;;;;;;5033225;28;20473;-61
2021/12/07 05:52:54;;;;;;;30.42;13.88;;;1.70;99.90;;;;;;5033243;28;20049;-60
2021/12/07 05:55:20;;;;;;;25.95;12.35;;;1.70;99.90;;;;;;5033454;28;20038;-61
2021/12/07 05:57:46;;;;;;;31.00;13.88;;;1.70;99.90;;;;;;5033180;28;20581;-61
2021/12/07 06:00:23;;;;;;;29.33;13.68;;;1.80;99.90;;;;;;5033428;28;20043;-61
2021/12/07 06:02:48;;;;;;;30.10;13.10;;;1.60;99.90;;;;;;5033002;28;20045;-61
2021/12/07 06:05:14;;;;;;;28.23;12.18;;;1.60;99.90;;;;;;5015413;28;20132;-62
2021/12/07 06:07:39;;;;;;;32.40;14.55;;;1.60;99.90;;;;;;5033186;28;20041;-61
2021/12/07 06:10:06;;;;;;;30.13;12.77;;;1.60;99.90;;;;;;5033078;28;20045;-60
2021/12/07 06:12:31;;;;;;;31.67;14.00;;;1.60;99.90;;;;;;5033051;28;20075;-61
2021/12/07 06:14:57;;;;;;;32.95;14.68;;;1.60;99.90;;;;;;5033025;28;20041;-60
2021/12/07 06:17:23;;;;;;;35.60;14.48;;;1.50;99.90;;;;;;5032754;28;20096;-60
2021/12/07 06:19:49;;;;;;;30.02;13.15;;;1.60;99.90;;;;;;5029729;28;20519;-62
2021/12/07 06:22:14;;;;;;;29.88;12.93;;;1.50;99.90;;;;;;5030012;28;20673;-62
2021/12/07 06:24:40;;;;;;;29.55;12.52;;;1.50;99.90;;;;;;4995817;28;20045;-62
2021/12/07 06:27:05;;;;;;;33.15;13.93;;;1.40;99.90;;;;;;5029660;28;20049;-62
2021/12/07 06:29:31;;;;;;;32.22;12.70;;;1.40;99.90;;;;;;5029203;28;20045;-61
2021/12/07 06:31:57;;;;;;;29.52;13.15;;;1.40;99.90;;;;;;5032558;28;20041;-61
2021/12/07 06:34:23;;;;;;;28.05;11.88;;;1.50;99.90;;;;;;5032919;28;20042;-60
2021/12/07 06:36:48;;;;;;;31.67;12.40;;;1.40;99.90;;;;;;5032648;28;20037;-61
2021/12/07 06:39:14;;;;;;;28.98;12.70;;;1.40;99.90;;;;;;5032612;28;20056;-61
2021/12/07 06:41:40;;;;;;;29.50;12.23;;;1.40;99.90;;;;;;5032619;28;20041;-61
2021/12/07 06:44:05;;;;;;;32.55;12.93;;;1.40;99.90;;;;;;5032155;28;20045;-61
2021/12/07 06:46:31;;;;;;;31.40;13.35;;;1.40;99.90;;;;;;5032300;28;20053;-61
2021/12/07 06:48:57;;;;;;;31.73;14.45;;;1.50;99.90;;;;;;5032226;28;20064;-61
2021/12/07 06:51:23;;;;;;;28.02;12.98;;;1.50;99.90;;;;;;5014483;28;20038;-61
2021/12/07 06:53:49;;;;;;;30.92;13.32;;;1.50;99.90;;;;;;5031987;28;20038;-61
2021/12/07 06:56:14;;;;;;;33.80;13.68;;;1.40;99.90;;;;;;5032502;28;20065;-61
2021/12/07 06:58:40;;;;;;;31.13;13.45;;;1.50;99.90;;;;;;5029609;28;20076;-61
2021/12/07 07:01:10;;;;;;;32.25;13.25;;;1.40;99.90;;;;;;5029018;28;20543;-61
2021/12/07 07:03:36;;;;;;;34.00;14.13;;;1.40;99.90;;;;;;5029129;28;20053;-61
2021/12/07 07:06:02;;;;;;;30.45;13.10;;;1.40;99.90;;;;;;5011460;28;20070;-61
2021/12/07 07:08:28;;;;;;;34.92;13.48;;;1.30;99.90;;;;;;5011415;28;20607;-62
2021/12/07 07:10:54;;;;;;;28.70;12.15;;;1.30;99.90;;;;;;5011028;28;20064;-62
2021/12/07 07:13:19;;;;;;;30.83;13.40;;;1.20;99.90;;;;;;5010673;28;20037;-61
2021/12/07 07:15:45;;;;;;;35.28;13.73;;;1.30;99.90;;;;;;5028264;28;20077;-61
2021/12/07 07:18:11;;;;;;;37.05;14.30;;;1.30;99.90;;;;;;5028782;28;20048;-62
2021/12/07 07:20:37;;;;;;;32.42;13.32;;;1.30;99.90;;;;;;5028779;28;20057;-61
2021/12/07 07:23:03;;;;;;;39.85;13.52;;;1.20;99.90;;;;;;5028194;28;20041;-61
2021/12/07 07:25:29;;;;;;;35.22;13.45;;;1.30;99.90;;;;;;5028712;28;20037;-61
2021/12/07 07:27:55;;;;;;;35.83;13.52;;;1.30;99.90;;;;;;5010939;28;20072;-62
2021/12/07 07:30:21;;;;;;;35.33;14.13;;;1.40;99.90;;;;;;5028379;28;20140;-62
2021/12/07 07:32:47;;;;;;;36.28;14.18;;;1.40;99.90;;;;;;5028339;28;20053;-61
2021/12/07 07:35:14;;;;;;;34.78;13.65;;;1.50;99.90;;;;;;5028357;28;20511;-61
2021/12/07 07:37:40;;;;;;;36.20;13.70;;;1.50;99.90;;;;;;5028558;28;20116;-62
2021/12/07 07:40:10;;;;;;;35.13;13.18;;;1.60;99.90;;;;;;5028254;28;20057;-61
2021/12/07 07:42:36;;;;;;;31.40;12.18;;;1.60;99.90;;;;;;5010366;28;20124;-61
2021/12/07 07:45:04;;;;;;;36.95;13.02;;;1.60;99.90;;;;;;5028357;28;20551;-61
2021/12/07 07:47:30;;;;;;;31.17;11.98;;;1.60;99.90;;;;;;5027966;28;20041;-61
2021/12/07 07:49:55;;;;;;;30.58;13.15;;;1.70;99.90;;;;;;5028234;28;20037;-60
2021/12/07 07:52:21;;;;;;;33.97;12.52;;;1.60;99.90;;;;;;5027979;28;20586;-60
2021/12/07 07:54:47;;;;;;;30.00;11.73;;;1.70;99.90;;;;;;5028085;28;20049;-61
2021/12/07 07:57:12;;;;;;;33.83;12.32;;;1.70;99.90;;;;;;5027476;28;20140;-60
2021/12/07 07:59:39;;;;;;;24.58;11.18;;;1.60;99.90;;;;;;5027679;28;20090;-61
2021/12/07 08:02:06;;;;;;;25.42;11.88;;;1.60;99.90;;;;;;5027773;28;20033;-60
2021/12/07 08:04:31;;;;;;;30.90;12.13;;;1.60;99.90;;;;;;5028211;28;20041;-61
2021/12/07 08:06:57;;;;;;;31.05;11.85;;;1.70;99.90;;;;;;5047636;22;20046;-63
2021/12/07 08:09:22;;;;;;;25.75;10.80;;;1.70;99.90;;;;;;5030275;28;20041;-63
2021/12/07 08:11:48;;;;;;;28.50;11.13;;;1.60;99.90;;;;;;5010540;28;20044;-64
2021/12/07 08:14:15;;;;;;;23.88;10.57;;;1.60;99.90;;;;;;5029025;28;20044;-64
2021/12/07 08:16:41;;;;;;;24.30;10.27;;;1.60;99.90;;;;;;5026769;28;20037;-64
2021/12/07 08:19:07;;;;;;;28.35;10.73;;;1.60;99.90;;;;;;5027476;28;20124;-63
2021/12/07 08:21:32;;;;;;;26.58;11.10;;;1.50;99.90;;;;;;5012045;28;20045;-63
2021/12/07 08:23:58;;;;;;;23.15;9.98;;;1.60;99.90;;;;;;5029111;28;20044;-63
2021/12/07 08:26:25;;;;;;;26.27;10.88;;;1.50;99.90;;;;;;5030416;28;20056;-63
2021/12/07 08:28:51;;;;;;;27.70;10.50;;;1.50;99.90;;;;;;5030491;28;20503;-63
2021/12/07 08:31:18;;;;;;;21.30;9.50;;;1.60;99.90;;;;;;5030847;28;20025;-63
2021/12/07 08:33:44;;;;;;;23.25;10.85;;;1.60;99.90;;;;;;5030416;28;20038;-63
2021/12/07 08:36:09;;;;;;;26.95;9.80;;;1.60;99.90;;;;;;5030473;28;20489;-63
2021/12/07 08:38:36;;;;;;;21.42;9.82;;;1.50;99.90;;;;;;5030364;28;20044;-63
2021/12/07 08:41:03;;;;;;;28.65;10.52;;;1.50;99.90;;;;;;5030298;28;20050;-63
2021/12/07 08:43:31;;;;;;;20.35;9.75;;;1.50;99.90;;;;;;5030483;28;20128;-63
2021/12/07 08:45:59;;;;;;;22.48;10.52;;;1.50;99.90;;;;;;5030409;28;20041;-63
2021/12/07 08:48:26;;;;;;;22.27;10.00;;;1.50;99.90;;;;;;5030286;28;20033;-63
2021/12/07 08:50:52;;;;;;;27.60;11.52;;;1.60;99.90;;;;;;5030219;28;20077;-63
2021/12/07 08:53:21;;;;;;;31.30;10.48;;;1.60;99.90;;;;;;5030144;28;20430;-63
2021/12/07 09:01:21;;;;;;;26.83;10.18;;;1.70;99.90;;;;;;5030212;28;20049;-63
2021/12/07 09:03:48;;;;;;;26.15;11.35;;;1.70;99.90;;;;;;5029933;28;20048;-63
2021/12/07 09:06:14;;;;;;;30.73;11.85;;;1.70;99.90;;;;;;5029668;28;20073;-63
2021/12/07 09:08:40;;;;;;;27.50;10.85;;;1.70;99.90;;;;;;5029177;28;20077;-63
2021/12/07 09:11:06;;;;;;;30.50;10.65;;;1.70;99.90;;;;;;5030026;28;20079;-63
2021/12/07 09:13:32;;;;;;;37.67;11.60;;;1.80;99.90;;;;;;5029713;28;20030;-63
2021/12/07 09:15:58;;;;;;;33.10;11.27;;;1.80;99.90;;;;;;5029975;28;20045;-63
2021/12/07 09:18:25;;;;;;;27.63;10.13;;;1.90;99.90;;;;;;5029793;28;20132;-63
2021/12/07 09:20:51;;;;;;;41.35;12.00;;;1.90;99.90;;;;;;5029566;28;20628;-63
2021/12/07 09:23:17;;;;;;;34.92;12.80;;;1.90;99.90;;;;;;5029602;28;20044;-63
2021/12/07 09:25:43;;;;;;;35.80;11.52;;;2.00;99.90;;;;;;5029929;28;20037;-63
2021/12/07 09:28:10;;;;;;;31.98;11.52;;;2.10;99.90;;;;;;5030015;28;20102;-63
2021/12/07 09:30:37;;;;;;;27.77;12.20;;;2.10;99.90;;;;;;5029752;28;20077;-63
2021/12/07 09:33:04;;;;;;;33.85;12.13;;;2.20;99.90;;;;;;5029289;28;20538;-63
2021/12/07 09:35:30;;;;;;;29.25;12.63;;;2.40;99.90;;;;;;5029608;28;20065;-63
2021/12/07 09:37:56;;;;;;;32.65;11.43;;;2.40;99.90;;;;;;5030069;28;20034;-63
2021/12/07 09:40:24;;;;;;;29.42;12.25;;;2.50;99.90;;;;;;5029637;28;20522;-63
2021/12/07 09:42:51;;;;;;;29.75;11.98;;;2.50;99.90;;;;;;5029536;28;20048;-63
2021/12/07 09:45:19;;;;;;;34.35;12.25;;;2.50;99.90;;;;;;5029632;28;20041;-63
2021/12/07 09:47:46;;;;;;;30.92;12.90;;;2.60;99.90;;;;;;5029565;28;20592;-63
2021/12/07 09:50:15;;;;;;;25.13;10.43;;;2.60;99.90;;;;;;5029771;28;20115;-63
2021/12/07 09:52:46;;;;;;;28.25;11.82;;;2.70;99.90;;;;;;5011524;28;20045;-63
2021/12/07 09:55:12;;;;;;;30.13;10.57;;;2.80;99.90;;;;;;5029532;28;20507;-63
2021/12/07 09:57:38;;;;;;;21.70;8.50;;;2.90;99.90;;;;;;5029637;28;20051;-63
2021/12/07 10:00:08;;;;;;;30.05;11.32;;;3.00;99.90;;;;;;5029692;28;20112;-63
2021/12/07 10:02:33;;;;;;;29.05;10.70;;;3.00;99.90;;;;;;5029520;28;20056;-63
2021/12/07 10:04:59;;;;;;;23.77;10.27;;;3.10;99.90;;;;;;5029552;28;20041;-63
2021/12/07 10:07:25;;;;;;;18.95;9.60;;;3.10;99.90;;;;;;5029264;28;20041;-63
2021/12/07 10:09:50;;;;;;;22.88;9.88;;;3.10;99.90;;;;;;5029755;28;20037;-63
2021/12/07 10:12:21;;;;;;;22.23;8.98;;;3.10;99.90;;;;;;5029196;28;20416;-63
2021/12/07 10:14:48;;;;;;;15.02;8.05;;;3.00;99.90;;;;;;5029239;28;20069;-63
2021/12/07 10:17:19;;;;;;;21.88;9.27;;;2.90;99.90;;;;;;5029421;28;20034;-63
2021/12/07 10:19:45;;;;;;;20.65;8.88;;;2.90;99.90;;;;;;5031744;28;20042;-63
2021/12/07 10:22:19;;;;;;;24.15;9.77;;;2.90;99.90;;;;;;5032806;28;20044;-63
2021/12/07 10:24:54;;;;;;;24.73;10.20;;;2.80;99.90;;;;;;5032976;28;20037;-63
2021/12/07 10:27:43;;;;;;;20.52;10.32;;;2.80;99.90;;;;;;5032886;28;20492;-63
2021/12/07 10:30:18;;;;;;;25.00;8.88;;;2.80;99.90;;;;;;5033159;28;20042;-63
2021/12/07 10:32:56;;;;;;;27.02;10.43;;;2.80;99.90;;;;;;5032795;28;20040;-63
2021/12/07 10:35:27;;;;;;;21.55;9.40;;;2.90;99.90;;;;;;5032743;28;20033;-63
2021/12/07 10:38:13;;;;;;;22.80;10.18;;;3.00;99.90;;;;;;5014715;28;20068;-63
2021/12/07 10:41:05;;;;;;;24.40;10.20;;;3.10;99.90;;;;;;5032825;28;20243;-63
2021/12/07 10:43:49;;;;;;;22.42;9.73;;;3.30;99.90;;;;;;5033066;28;20042;-63
2021/12/07 10:46:25;;;;;;;27.02;10.32;;;3.40;99.90;;;;;;5032669;28;20041;-63
2021/12/07 10:49:26;;;;;;;25.98;9.65;;;3.50;99.90;;;;;;5032505;28;20041;-63
2021/12/07 10:52:03;;;;;;;22.02;8.98;;;3.60;99.90;;;;;;5032196;28;20029;-63
2021/12/07 10:54:32;;;;;;;24.15;9.98;;;3.70;99.90;;;;;;5032584;28;20088;-63
2021/12/07 10:56:59;;;;;;;23.05;9.02;;;3.80;99.90;;;;;;5032444;28;20125;-63
2021/12/07 10:59:25;;;;;;;23.08;9.95;;;3.90;99.90;;;;;;5032442;28;20045;-63
2021/12/07 11:01:55;;;;;;;19.38;9.68;;;4.00;99.90;;;;;;5032067;28;20050;-63
2021/12/07 11:04:26;;;;;;;23.00;9.82;;;4.10;99.90;;;;;;5032359;28;20463;-63
2021/12/07 11:07:11;;;;;;;25.30;10.85;;;4.20;99.90;;;;;;5031751;28;20041;-63
2021/12/07 11:09:46;;;;;;;22.23;9.10;;;4.30;99.90;;;;;;5032224;28;20092;-63
2021/12/07 11:12:16;;;;;;;22.38;9.73;;;4.40;99.90;;;;;;5031878;28;20696;-63
2021/12/07 11:14:52;;;;;;;17.05;8.52;;;4.50;99.90;;;;;;5032013;28;20124;-63
2021/12/07 11:17:30;;;;;;;19.38;10.23;;;4.60;99.90;;;;;;5014403;28;20045;-63
2021/12/07 11:19:57;;;;;;;21.60;8.90;;;4.70;99.90;;;;;;5032141;28;20042;-63
2021/12/07 11:22:28;;;;;;;24.88;10.30;;;4.80;99.90;;;;;;5013866;28;20064;-63
2021/12/07 11:24:55;;;;;;;19.63;8.75;;;4.90;99.90;;;;;;5014496;28;20503;-63
2021/12/07 11:30:14;;;;;;;26.23;8.65;;;5.00;99.90;;;;;;5031204;28;20053;-63
2021/12/07 11:32:55;;;;;;;21.98;9.27;;;5.10;99.90;;;;;;5031293;28;20056;-63
2021/12/07 11:35:28;;;;;;;29.00;10.20;;;5.10;99.90;;;;;;5031763;28;20033;-63
2021/12/07 11:37:55;;;;;;;20.75;9.02;;;5.10;99.90;;;;;;5031619;28;20051;-63
2021/12/07 11:40:37;;;;;;;20.77;8.93;;;5.10;99.90;;;;;;5031346;28;20042;-63
2021/12/07 11:43:14;;;;;;;13.65;8.13;;;5.20;99.90;;;;;;5031460;28;20034;-63
2021/12/07 11:45:44;;;;;;;22.25;9.32;;;5.20;99.90;;;;;;5031702;28;20099;-63
2021/12/07 11:48:10;;;;;;;21.10;7.80;;;5.30;99.90;;;;;;5031547;28;20507;-63
2021/12/07 11:50:40;;;;;;;19.55;8.60;;;5.30;99.90;;;;;;5031054;28;20041;-63
2021/12/07 11:53:17;;;;;;;23.58;9.00;;;5.30;99.90;;;;;;5030988;28;20459;-63
2021/12/07 11:55:47;;;;;;;18.83;8.13;;;5.40;99.90;;;;;;5031238;28;20519;-63
2021/12/07 11:58:14;;;;;;;21.77;10.05;;;5.50;99.90;;;;;;5031332;28;20523;-63
2021/12/07 12:00:44;;;;;;;23.23;8.48;;;5.50;99.90;;;;;;5031195;28;20045;-63
2021/12/07 12:03:16;;;;;;;14.50;7.57;;;5.50;99.90;;;;;;5030640;28;20507;-63
2021/12/07 12:05:44;;;;;;;14.57;7.53;;;5.50;99.90;;;;;;5030763;28;20570;-63
2021/12/07 12:08:10;;;;;;;16.98;8.05;;;5.50;99.90;;;;;;5031181;28;20403;-63
2021/12/07 12:10:39;;;;;;;16.30;7.50;;;5.60;99.90;;;;;;5030721;28;20046;-63
2021/12/07 12:13:24;;;;;;;21.85;8.05;;;5.60;99.90;;;;;;5029450;28;20495;-63
2021/12/07 12:16:21;;;;;;;20.35;8.25;;;5.60;99.90;;;;;;5029354;28;20045;-63
2021/12/07 12:19:06;;;;;;;15.00;8.02;;;5.60;99.90;;;;;;5029452;28;20119;-63
2021/12/07 12:21:42;;;;;;;18.33;7.78;;;5.70;99.90;;;;;;5029579;28;20700;-63
2021/12/07 12:24:44;;;;;;;17.20;8.40;;;5.70;99.90;;;;;;5011702;28;20053;-62
2021/12/07 12:27:19;;;;;;;19.85;7.50;;;5.70;99.90;;;;;;5030262;28;20507;-63
2021/12/07 12:29:47;;;;;;;20.55;8.23;;;5.70;99.90;;;;;;5030789;28;20037;-63
2021/12/07 12:32:13;;;;;;;19.98;9.30;;;5.60;99.90;;;;;;5030057;28;20072;-62
2021/12/07 12:34:48;;;;;;;20.38;8.07;;;5.70;99.90;;;;;;5030678;28;20068;-63
2021/12/07 12:37:23;;;;;;;17.38;7.38;;;5.70;99.90;;;;;;5030546;28;20037;-63
2021/12/07 12:40:03;;;;;;;25.85;9.10;;;5.60;99.90;;;;;;5030621;28;20041;-63
2021/12/07 12:42:41;;;;;;;15.38;8.25;;;5.70;99.90;;;;;;5029851;28;20116;-62
2021/12/07 12:45:25;;;;;;;22.38;9.48;;;5.70;99.90;;;;;;5030504;28;20045;-63
2021/12/07 12:48:04;;;;;;;19.55;8.82;;;5.70;99.90;;;;;;5030271;28;20076;-63
2021/12/07 12:50:46;;;;;;;18.27;9.02;;;5.70;99.90;;;;;;5012740;28;20131;-63
2021/12/07 12:53:12;;;;;;;17.45;7.88;;;5.60;99.90;;;;;;5029926;28;20136;-63
2021/12/07 12:55:48;;;;;;;22.35;9.15;;;5.70;99.90;;;;;;5029978;28;20145;-63
2021/12/07 12:58:30;;;;;;;22.27;9.20;;;5.70;99.90;;;;;;5012551;28;20116;-63
2021/12/07 13:01:00;;;;;;;;;;;5.60;99.90;;;;;;5030832;28;20052;-63
2021/12/07 13:03:42;;;;;;;18.75;9.77;;;5.50;99.90;;;;;;5029749;28;19923;-63
2021/12/07 13:06:14;;;;;;;22.67;9.07;;;5.50;99.90;;;;;;5030069;28;20038;-63
2021/12/07 13:09:20;;;;;;;23.83;10.23;;;5.50;99.90;;;;;;5012418;28;20072;-63
2021/12/07 13:12:03;;;;;;;17.80;9.48;;;5.50;99.90;;;;;;5015866;28;20084;-63
2021/12/07 13:14:33;;;;;;;22.10;9.52;;;5.50;99.90;;;;;;5012484;28;20045;-62
2021/12/07 13:17:31;;;;;;;21.90;9.80;;;5.50;99.90;;;;;;5029993;28;20045;-63
2021/12/07 13:20:08;;;;;;;26.42;10.65;;;5.50;99.90;;;;;;5029790;28;20488;-63
2021/12/07 13:22:54;;;;;;;24.80;12.55;;;5.50;99.90;;;;;;5029665;28;20041;-63
2021/12/07 13:25:35;;;;;;;28.10;12.63;;;5.50;99.90;;;;;;5029804;28;20077;-63
2021/12/07 13:28:04;;;;;;;23.13;11.68;;;5.60;99.90;;;;;;5029852;28;20037;-62
2021/12/07 13:30:45;;;;;;;24.20;12.27;;;5.50;99.90;;;;;;5029529;28;20050;-63
2021/12/07 13:33:13;;;;;;;24.98;13.07;;;5.50;99.90;;;;;;5029834;28;20060;-62
2021/12/07 13:35:39;;;;;;;25.02;12.73;;;5.40;99.90;;;;;;5025221;28;20552;-63
2021/12/07 13:38:26;;;;;;;26.13;13.43;;;5.40;99.90;;;;;;5018485;28;20114;-63
2021/12/07 13:41:14;;;;;;;31.83;13.35;;;5.40;99.90;;;;;;5019543;28;20045;-63
2021/12/07 13:43:45;;;;;;;26.73;12.98;;;5.30;99.90;;;;;;5019512;28;20117;-62
2021/12/07 13:46:14;;;;;;;26.08;13.15;;;5.30;99.90;;;;;;5019288;28;20030;-63
2021/12/07 13:48:45;;;;;;;25.88;13.45;;;5.30;99.90;;;;;;5014834;28;20038;-63
2021/12/07 13:51:12;;;;;;;28.25;13.95;;;5.20;99.90;;;;;;5009252;28;20104;-62
2021/12/07 13:53:41;;;;;;;28.38;13.63;;;5.20;99.90;;;;;;5008390;28;20500;-63
2021/12/07 13:56:08;;;;;;;28.27;12.75;;;5.20;99.90;;;;;;5012398;28;20056;-62
2021/12/07 13:58:55;;;;;;;28.25;13.77;;;5.10;99.90;;;;;;5012150;28;20041;-62
2021/12/07 14:01:22;;;;;;;30.25;12.80;;;5.10;99.90;;;;;;5012003;28;20060;-62
2021/12/07 14:03:48;;;;;;;28.25;13.70;;;5.00;99.90;;;;;;5011808;28;20069;-62
2021/12/07 14:06:14;;;;;;;30.27;14.32;;;4.90;99.90;;;;;;5014743;22;20139;-61
2021/12/07 14:08:39;;;;;;;26.00;12.98;;;4.90;99.90;;;;;;5013750;28;20543;-61
2021/12/07 14:11:06;;;;;;;32.42;13.90;;;4.90;99.90;;;;;;5013407;28;20042;-61
2021/12/07 14:13:32;;;;;;;31.25;13.27;;;4.80;99.90;;;;;;5013279;28;20492;-62
2021/12/07 14:15:57;;;;;;;27.02;13.05;;;4.80;99.90;;;;;;5013508;28;20045;-61
2021/12/07 14:18:26;;;;;;;29.10;12.90;;;4.70;99.90;;;;;;5013160;28;20037;-62
2021/12/07 14:20:55;;;;;;;28.42;12.88;;;4.70;99.90;;;;;;5013484;28;20049;-62
2021/12/07 14:23:31;;;;;;;21.58;11.60;;;4.60;99.90;;;;;;5013202;28;20109;-61